sensor_id;sensor_type;location;lat;lon;timestamp;P1;durP1;ratioP1;P2;durP2;ratioP2
48945;SDS011;34999;50.940;3.998;2022-09-09T00:00:59;8.40;;;3.70;;
48945;SDS011;34999;50.940;3.998;2022-09-09T00:03:40;10.43;;;3.87;;
48945;SDS011;34999;50.940;3.998;2022-09-09T00:06:17;4.27;;;3.60;;
48945;SDS011;34999;50.940;3.998;2022-09-09T00:08:53;11.47;;;3.87;;
48945;SDS011;34999;50.940;3.998;2022-09-09T00:11:29;5.77;;;3.67;;
48945;SDS011;34999;50.940;3.998;2022-09-09T00:14:03;10.47;;;4.07;;
48945;SDS011;34999;50.940;3.998;2022-09-09T00:16:43;8.27;;;3.73;;
48945;SDS011;34999;50.940;3.998;2022-09-09T00:19:22;5.53;;;3.73;;
48945;SDS011;34999;50.940;3.998;2022-09-09T00:21:58;8.23;;;3.63;;
48945;SDS011;34999;50.940;3.998;2022-09-09T00:24:42;6.77;;;3.83;;
48945;SDS011;34999;50.940;3.998;2022-09-09T00:27:15;6.83;;;3.60;;
48945;SDS011;34999;50.940;3.998;2022-09-09T00:29:51;8.50;;;3.77;;
48945;SDS011;34999;50.940;3.998;2022-09-09T00:32:22;7.30;;;3.83;;
48945;SDS011;34999;50.940;3.998;2022-09-09T00:34:58;8.67;;;4.07;;
48945;SDS011;34999;50.940;3.998;2022-09-09T00:37:30;12.13;;;3.70;;
48945;SDS011;34999;50.940;3.998;2022-09-09T00:40:01;11.33;;;3.73;;
48945;SDS011;34999;50.940;3.998;2022-09-09T00:42:36;9.37;;;4.07;;
48945;SDS011;34999;50.940;3.998;2022-09-09T00:45:12;8.73;;;3.97;;
48945;SDS011;34999;50.940;3.998;2022-09-09T00:48:00;8.53;;;3.40;;
48945;SDS011;34999;50.940;3.998;2022-09-09T00:50:37;7.30;;;3.50;;
48945;SDS011;34999;50.940;3.998;2022-09-09T00:53:16;5.27;;;3.43;;
48945;SDS011;34999;50.940;3.998;2022-09-09T00:55:53;9.97;;;3.53;;
48945;SDS011;34999;50.940;3.998;2022-09-09T00:58:28;4.40;;;3.37;;
48945;SDS011;34999;50.940;3.998;2022-09-09T01:00:57;10.83;;;3.93;;
48945;SDS011;34999;50.940;3.998;2022-09-09T01:03:34;10.80;;;4.00;;
48945;SDS011;34999;50.940;3.998;2022-09-09T01:06:14;5.57;;;3.30;;
48945;SDS011;34999;50.940;3.998;2022-09-09T01:08:59;4.97;;;3.17;;
48945;SDS011;34999;50.940;3.998;2022-09-09T01:11:37;6.47;;;3.37;;
48945;SDS011;34999;50.940;3.998;2022-09-09T01:14:16;8.70;;;3.13;;
48945;SDS011;34999;50.940;3.998;2022-09-09T01:16:54;8.10;;;3.10;;
48945;SDS011;34999;50.940;3.998;2022-09-09T01:19:28;12.43;;;3.10;;
48945;SDS011;34999;50.940;3.998;2022-09-09T01:22:11;4.97;;;2.70;;
48945;SDS011;34999;50.940;3.998;2022-09-09T01:25:01;6.43;;;2.83;;
48945;SDS011;34999;50.940;3.998;2022-09-09T01:27:42;7.00;;;2.97;;
48945;SDS011;34999;50.940;3.998;2022-09-09T01:30:13;7.17;;;3.00;;
48945;SDS011;34999;50.940;3.998;2022-09-09T01:32:44;4.07;;;2.70;;
48945;SDS011;34999;50.940;3.998;2022-09-09T01:35:15;4.87;;;2.83;;
48945;SDS011;34999;50.940;3.998;2022-09-09T01:37:56;6.27;;;3.10;;
48945;SDS011;34999;50.940;3.998;2022-09-09T01:40:25;10.33;;;3.03;;
48945;SDS011;34999;50.940;3.998;2022-09-09T01:42:55;4.87;;;2.93;;
48945;SDS011;34999;50.940;3.998;2022-09-09T01:45:24;5.10;;;2.87;;
48945;SDS011;34999;50.940;3.998;2022-09-09T01:47:53;13.43;;;3.77;;
48945;SDS011;34999;50.940;3.998;2022-09-09T01:50:21;7.90;;;3.07;;
48945;SDS011;34999;50.940;3.998;2022-09-09T01:52:51;4.93;;;2.93;;
48945;SDS011;34999;50.940;3.998;2022-09-09T01:55:28;5.13;;;2.73;;
48945;SDS011;34999;50.940;3.998;2022-09-09T01:58:03;7.87;;;3.07;;
48945;SDS011;34999;50.940;3.998;2022-09-09T02:00:43;6.47;;;3.00;;
48945;SDS011;34999;50.940;3.998;2022-09-09T02:03:20;10.63;;;3.30;;
48945;SDS011;34999;50.940;3.998;2022-09-09T02:05:54;8.10;;;3.00;;
48945;SDS011;34999;50.940;3.998;2022-09-09T02:08:32;10.57;;;3.20;;
48945;SDS011;34999;50.940;3.998;2022-09-09T02:11:06;9.30;;;3.07;;
48945;SDS011;34999;50.940;3.998;2022-09-09T02:13:43;11.17;;;3.60;;
48945;SDS011;34999;50.940;3.998;2022-09-09T02:16:13;7.17;;;2.93;;
48945;SDS011;34999;50.940;3.998;2022-09-09T02:18:47;8.60;;;3.20;;
48945;SDS011;34999;50.940;3.998;2022-09-09T02:21:20;11.07;;;3.60;;
48945;SDS011;34999;50.940;3.998;2022-09-09T02:23:50;10.67;;;3.37;;
48945;SDS011;34999;50.940;3.998;2022-09-09T02:26:20;8.57;;;3.40;;
48945;SDS011;34999;50.940;3.998;2022-09-09T02:28:52;7.33;;;3.30;;
48945;SDS011;34999;50.940;3.998;2022-09-09T02:31:24;9.67;;;3.47;;
48945;SDS011;34999;50.940;3.998;2022-09-09T02:33:53;12.37;;;3.27;;
48945;SDS011;34999;50.940;3.998;2022-09-09T02:36:27;13.07;;;3.73;;
48945;SDS011;34999;50.940;3.998;2022-09-09T02:39:01;8.53;;;3.60;;
48945;SDS011;34999;50.940;3.998;2022-09-09T02:41:35;9.47;;;3.67;;
48945;SDS011;34999;50.940;3.998;2022-09-09T02:44:11;13.27;;;3.60;;
48945;SDS011;34999;50.940;3.998;2022-09-09T02:46:45;9.57;;;3.60;;
48945;SDS011;34999;50.940;3.998;2022-09-09T02:49:25;10.50;;;3.30;;
48945;SDS011;34999;50.940;3.998;2022-09-09T02:51:59;9.97;;;3.60;;
48945;SDS011;34999;50.940;3.998;2022-09-09T02:54:30;12.73;;;3.80;;
48945;SDS011;34999;50.940;3.998;2022-09-09T02:57:01;12.70;;;3.70;;
48945;SDS011;34999;50.940;3.998;2022-09-09T02:59:35;9.10;;;3.63;;
48945;SDS011;34999;50.940;3.998;2022-09-09T03:02:04;18.00;;;4.00;;
48945;SDS011;34999;50.940;3.998;2022-09-09T03:04:32;12.13;;;3.60;;
48945;SDS011;34999;50.940;3.998;2022-09-09T03:07:01;11.27;;;3.60;;
48945;SDS011;34999;50.940;3.998;2022-09-09T03:09:30;11.17;;;3.20;;
48945;SDS011;34999;50.940;3.998;2022-09-09T03:11:58;12.00;;;3.73;;
48945;SDS011;34999;50.940;3.998;2022-09-09T03:14:27;9.80;;;3.47;;
48945;SDS011;34999;50.940;3.998;2022-09-09T03:16:58;21.77;;;3.87;;
48945;SDS011;34999;50.940;3.998;2022-09-09T03:19:27;13.23;;;3.87;;
48945;SDS011;34999;50.940;3.998;2022-09-09T03:21:57;15.97;;;3.70;;
48945;SDS011;34999;50.940;3.998;2022-09-09T03:24:26;8.87;;;3.23;;
48945;SDS011;34999;50.940;3.998;2022-09-09T03:26:54;12.87;;;3.77;;
48945;SDS011;34999;50.940;3.998;2022-09-09T03:29:24;27.20;;;3.70;;
48945;SDS011;34999;50.940;3.998;2022-09-09T03:31:52;11.57;;;3.63;;
48945;SDS011;34999;50.940;3.998;2022-09-09T03:34:21;11.07;;;3.63;;
48945;SDS011;34999;50.940;3.998;2022-09-09T03:36:50;12.90;;;3.30;;
48945;SDS011;34999;50.940;3.998;2022-09-09T03:39:18;12.57;;;3.43;;
48945;SDS011;34999;50.940;3.998;2022-09-09T03:41:46;7.10;;;3.70;;
48945;SDS011;34999;50.940;3.998;2022-09-09T03:44:15;13.23;;;4.13;;
48945;SDS011;34999;50.940;3.998;2022-09-09T03:46:43;11.17;;;3.03;;
48945;SDS011;34999;50.940;3.998;2022-09-09T03:49:12;13.77;;;3.10;;
48945;SDS011;34999;50.940;3.998;2022-09-09T03:51:42;12.13;;;3.20;;
48945;SDS011;34999;50.940;3.998;2022-09-09T03:54:10;13.30;;;3.50;;
48945;SDS011;34999;50.940;3.998;2022-09-09T03:56:38;11.53;;;3.33;;
48945;SDS011;34999;50.940;3.998;2022-09-09T03:59:08;18.27;;;3.70;;
48945;SDS011;34999;50.940;3.998;2022-09-09T04:01:36;14.00;;;3.43;;
48945;SDS011;34999;50.940;3.998;2022-09-09T04:04:06;10.80;;;3.03;;
48945;SDS011;34999;50.940;3.998;2022-09-09T04:06:35;10.30;;;3.27;;
48945;SDS011;34999;50.940;3.998;2022-09-09T04:09:05;11.47;;;3.33;;
48945;SDS011;34999;50.940;3.998;2022-09-09T04:11:33;10.67;;;3.77;;
48945;SDS011;34999;50.940;3.998;2022-09-09T04:14:01;13.20;;;3.17;;
48945;SDS011;34999;50.940;3.998;2022-09-09T04:16:30;14.27;;;3.90;;
48945;SDS011;34999;50.940;3.998;2022-09-09T04:18:59;15.43;;;3.13;;
48945;SDS011;34999;50.940;3.998;2022-09-09T04:21:27;10.33;;;3.20;;
48945;SDS011;34999;50.940;3.998;2022-09-09T04:23:56;18.33;;;3.57;;
48945;SDS011;34999;50.940;3.998;2022-09-09T04:26:25;12.97;;;3.60;;
48945;SDS011;34999;50.940;3.998;2022-09-09T04:28:54;9.40;;;3.37;;
48945;SDS011;34999;50.940;3.998;2022-09-09T04:31:22;14.33;;;3.83;;
48945;SDS011;34999;50.940;3.998;2022-09-09T04:33:51;11.20;;;3.10;;
48945;SDS011;34999;50.940;3.998;2022-09-09T04:36:19;8.13;;;3.20;;
48945;SDS011;34999;50.940;3.998;2022-09-09T04:38:48;19.03;;;3.53;;
48945;SDS011;34999;50.940;3.998;2022-09-09T04:41:16;13.77;;;2.87;;
48945;SDS011;34999;50.940;3.998;2022-09-09T04:43:46;12.70;;;3.30;;
48945;SDS011;34999;50.940;3.998;2022-09-09T04:46:14;12.90;;;3.70;;
48945;SDS011;34999;50.940;3.998;2022-09-09T04:48:43;12.87;;;3.30;;
48945;SDS011;34999;50.940;3.998;2022-09-09T04:51:13;8.63;;;3.03;;
48945;SDS011;34999;50.940;3.998;2022-09-09T04:53:42;7.47;;;2.90;;
48945;SDS011;34999;50.940;3.998;2022-09-09T04:56:10;13.50;;;3.53;;
48945;SDS011;34999;50.940;3.998;2022-09-09T04:58:40;7.90;;;3.03;;
48945;SDS011;34999;50.940;3.998;2022-09-09T05:01:11;15.23;;;3.33;;
48945;SDS011;34999;50.940;3.998;2022-09-09T05:03:41;9.17;;;3.23;;
48945;SDS011;34999;50.940;3.998;2022-09-09T05:06:12;11.17;;;3.30;;
48945;SDS011;34999;50.940;3.998;2022-09-09T05:08:41;9.37;;;2.80;;
48945;SDS011;34999;50.940;3.998;2022-09-09T05:11:14;16.90;;;3.40;;
48945;SDS011;34999;50.940;3.998;2022-09-09T05:13:44;7.67;;;3.00;;
48945;SDS011;34999;50.940;3.998;2022-09-09T05:16:14;13.93;;;3.33;;
48945;SDS011;34999;50.940;3.998;2022-09-09T05:18:43;14.17;;;4.00;;
48945;SDS011;34999;50.940;3.998;2022-09-09T05:21:12;7.70;;;2.93;;
48945;SDS011;34999;50.940;3.998;2022-09-09T05:23:42;8.87;;;3.57;;
48945;SDS011;34999;50.940;3.998;2022-09-09T05:26:13;9.60;;;3.10;;
48945;SDS011;34999;50.940;3.998;2022-09-09T05:28:43;14.07;;;3.50;;
48945;SDS011;34999;50.940;3.998;2022-09-09T05:31:16;13.80;;;3.00;;
48945;SDS011;34999;50.940;3.998;2022-09-09T05:33:47;9.10;;;3.50;;
48945;SDS011;34999;50.940;3.998;2022-09-09T05:36:17;12.43;;;3.17;;
48945;SDS011;34999;50.940;3.998;2022-09-09T05:38:47;7.93;;;2.90;;
48945;SDS011;34999;50.940;3.998;2022-09-09T05:41:15;11.67;;;3.20;;
48945;SDS011;34999;50.940;3.998;2022-09-09T05:43:45;14.33;;;3.60;;
48945;SDS011;34999;50.940;3.998;2022-09-09T05:46:17;9.13;;;3.20;;
48945;SDS011;34999;50.940;3.998;2022-09-09T05:48:47;11.23;;;3.87;;
48945;SDS011;34999;50.940;3.998;2022-09-09T05:51:18;12.90;;;2.67;;
48945;SDS011;34999;50.940;3.998;2022-09-09T05:53:48;17.07;;;3.50;;
48945;SDS011;34999;50.940;3.998;2022-09-09T05:56:20;16.73;;;3.40;;
48945;SDS011;34999;50.940;3.998;2022-09-09T05:58:52;13.47;;;2.90;;
48945;SDS011;34999;50.940;3.998;2022-09-09T06:01:23;10.93;;;2.70;;
48945;SDS011;34999;50.940;3.998;2022-09-09T06:03:53;10.17;;;2.87;;
48945;SDS011;34999;50.940;3.998;2022-09-09T06:06:22;9.13;;;2.60;;
48945;SDS011;34999;50.940;3.998;2022-09-09T06:08:52;15.20;;;3.10;;
48945;SDS011;34999;50.940;3.998;2022-09-09T06:11:23;9.77;;;2.70;;
48945;SDS011;34999;50.940;3.998;2022-09-09T06:13:53;13.33;;;3.10;;
48945;SDS011;34999;50.940;3.998;2022-09-09T06:16:23;12.73;;;3.80;;
48945;SDS011;34999;50.940;3.998;2022-09-09T06:18:53;9.43;;;2.73;;
48945;SDS011;34999;50.940;3.998;2022-09-09T06:21:23;18.30;;;3.43;;
48945;SDS011;34999;50.940;3.998;2022-09-09T06:23:52;11.13;;;2.80;;
48945;SDS011;34999;50.940;3.998;2022-09-09T06:26:27;8.53;;;3.07;;
48945;SDS011;34999;50.940;3.998;2022-09-09T06:28:57;10.03;;;2.93;;
48945;SDS011;34999;50.940;3.998;2022-09-09T06:31:28;11.17;;;3.07;;
48945;SDS011;34999;50.940;3.998;2022-09-09T06:33:58;6.13;;;2.80;;
48945;SDS011;34999;50.940;3.998;2022-09-09T06:36:27;12.87;;;3.30;;
48945;SDS011;34999;50.940;3.998;2022-09-09T06:38:57;8.80;;;2.93;;
48945;SDS011;34999;50.940;3.998;2022-09-09T06:41:26;13.00;;;3.77;;
48945;SDS011;34999;50.940;3.998;2022-09-09T06:43:56;14.10;;;3.13;;
48945;SDS011;34999;50.940;3.998;2022-09-09T06:46:24;9.37;;;3.33;;
48945;SDS011;34999;50.940;3.998;2022-09-09T06:48:56;12.57;;;3.20;;
48945;SDS011;34999;50.940;3.998;2022-09-09T06:51:26;10.47;;;3.57;;
48945;SDS011;34999;50.940;3.998;2022-09-09T06:53:57;12.07;;;3.73;;
48945;SDS011;34999;50.940;3.998;2022-09-09T06:56:27;11.60;;;3.63;;
48945;SDS011;34999;50.940;3.998;2022-09-09T06:58:57;11.43;;;3.47;;
48945;SDS011;34999;50.940;3.998;2022-09-09T07:01:27;7.23;;;3.03;;
48945;SDS011;34999;50.940;3.998;2022-09-09T07:03:59;9.03;;;2.80;;
48945;SDS011;34999;50.940;3.998;2022-09-09T07:06:31;5.77;;;2.47;;
48945;SDS011;34999;50.940;3.998;2022-09-09T07:09:02;8.87;;;2.97;;
48945;SDS011;34999;50.940;3.998;2022-09-09T07:11:32;10.03;;;2.47;;
48945;SDS011;34999;50.940;3.998;2022-09-09T07:14:04;8.30;;;2.97;;
48945;SDS011;34999;50.940;3.998;2022-09-09T07:16:32;11.30;;;2.63;;
48945;SDS011;34999;50.940;3.998;2022-09-09T07:19:04;11.00;;;2.30;;
48945;SDS011;34999;50.940;3.998;2022-09-09T07:21:33;10.73;;;2.57;;
48945;SDS011;34999;50.940;3.998;2022-09-09T07:24:01;6.23;;;2.43;;
48945;SDS011;34999;50.940;3.998;2022-09-09T07:26:33;10.43;;;2.60;;
48945;SDS011;34999;50.940;3.998;2022-09-09T07:29:02;12.33;;;2.80;;
48945;SDS011;34999;50.940;3.998;2022-09-09T07:31:32;8.47;;;2.80;;
48945;SDS011;34999;50.940;3.998;2022-09-09T07:34:03;12.33;;;3.07;;
48945;SDS011;34999;50.940;3.998;2022-09-09T07:36:33;15.90;;;2.73;;
48945;SDS011;34999;50.940;3.998;2022-09-09T07:39:04;9.27;;;2.90;;
48945;SDS011;34999;50.940;3.998;2022-09-09T07:41:34;7.43;;;2.50;;
48945;SDS011;34999;50.940;3.998;2022-09-09T07:44:04;12.23;;;2.63;;
48945;SDS011;34999;50.940;3.998;2022-09-09T07:49:24;9.90;;;2.80;;
48945;SDS011;34999;50.940;3.998;2022-09-09T07:51:58;13.33;;;2.43;;
48945;SDS011;34999;50.940;3.998;2022-09-09T07:54:27;8.07;;;2.43;;
48945;SDS011;34999;50.940;3.998;2022-09-09T07:56:55;7.67;;;2.27;;
48945;SDS011;34999;50.940;3.998;2022-09-09T07:59:25;9.43;;;2.97;;
48945;SDS011;34999;50.940;3.998;2022-09-09T08:01:56;7.50;;;2.00;;
48945;SDS011;34999;50.940;3.998;2022-09-09T08:04:29;5.70;;;2.30;;
48945;SDS011;34999;50.940;3.998;2022-09-09T08:06:58;8.27;;;2.60;;
48945;SDS011;34999;50.940;3.998;2022-09-09T08:09:27;4.73;;;2.07;;
48945;SDS011;34999;50.940;3.998;2022-09-09T08:11:56;9.20;;;2.93;;
48945;SDS011;34999;50.940;3.998;2022-09-09T08:14:26;9.97;;;2.73;;
48945;SDS011;34999;50.940;3.998;2022-09-09T08:16:56;11.30;;;2.70;;
48945;SDS011;34999;50.940;3.998;2022-09-09T08:19:24;5.80;;;2.50;;
48945;SDS011;34999;50.940;3.998;2022-09-09T08:21:57;8.57;;;2.67;;
48945;SDS011;34999;50.940;3.998;2022-09-09T08:24:25;7.17;;;2.47;;
48945;SDS011;34999;50.940;3.998;2022-09-09T08:26:53;7.20;;;2.50;;
48945;SDS011;34999;50.940;3.998;2022-09-09T08:29:23;8.97;;;2.77;;
48945;SDS011;34999;50.940;3.998;2022-09-09T08:31:52;8.83;;;2.77;;
48945;SDS011;34999;50.940;3.998;2022-09-09T08:34:23;8.93;;;2.40;;
48945;SDS011;34999;50.940;3.998;2022-09-09T08:36:53;6.80;;;2.57;;
48945;SDS011;34999;50.940;3.998;2022-09-09T08:39:23;9.33;;;2.77;;
48945;SDS011;34999;50.940;3.998;2022-09-09T08:42:07;8.77;;;2.83;;
48945;SDS011;34999;50.940;3.998;2022-09-09T08:44:52;6.17;;;2.00;;
48945;SDS011;34999;50.940;3.998;2022-09-09T08:47:41;6.60;;;2.33;;
48945;SDS011;34999;50.940;3.998;2022-09-09T08:50:22;9.43;;;2.50;;
48945;SDS011;34999;50.940;3.998;2022-09-09T08:52:55;8.60;;;2.43;;
48945;SDS011;34999;50.940;3.998;2022-09-09T08:55:31;10.30;;;2.50;;
48945;SDS011;34999;50.940;3.998;2022-09-09T08:58:11;6.20;;;2.67;;
48945;SDS011;34999;50.940;3.998;2022-09-09T09:03:48;6.47;;;2.37;;
48945;SDS011;34999;50.940;3.998;2022-09-09T09:06:26;8.63;;;2.70;;
48945;SDS011;34999;50.940;3.998;2022-09-09T09:09:05;9.20;;;2.63;;
48945;SDS011;34999;50.940;3.998;2022-09-09T09:11:43;9.60;;;2.63;;
48945;SDS011;34999;50.940;3.998;2022-09-09T09:14:17;6.53;;;2.37;;
48945;SDS011;34999;50.940;3.998;2022-09-09T09:16:51;8.30;;;2.13;;
48945;SDS011;34999;50.940;3.998;2022-09-09T09:19:21;7.77;;;2.40;;
48945;SDS011;34999;50.940;3.998;2022-09-09T09:21:56;6.97;;;2.30;;
48945;SDS011;34999;50.940;3.998;2022-09-09T09:24:32;7.47;;;2.20;;
48945;SDS011;34999;50.940;3.998;2022-09-09T09:27:12;7.57;;;2.73;;
48945;SDS011;34999;50.940;3.998;2022-09-09T09:29:41;9.90;;;2.53;;
48945;SDS011;34999;50.940;3.998;2022-09-09T09:32:33;8.33;;;2.43;;
48945;SDS011;34999;50.940;3.998;2022-09-09T09:35:06;7.03;;;2.43;;
48945;SDS011;34999;50.940;3.998;2022-09-09T09:37:40;12.43;;;2.70;;
48945;SDS011;34999;50.940;3.998;2022-09-09T09:40:30;4.13;;;1.97;;
48945;SDS011;34999;50.940;3.998;2022-09-09T09:43:02;14.00;;;2.70;;
48945;SDS011;34999;50.940;3.998;2022-09-09T09:45:35;8.23;;;2.47;;
48945;SDS011;34999;50.940;3.998;2022-09-09T09:48:30;7.43;;;2.30;;
48945;SDS011;34999;50.940;3.998;2022-09-09T09:53:34;9.40;;;2.20;;
48945;SDS011;34999;50.940;3.998;2022-09-09T09:56:06;8.57;;;2.47;;
48945;SDS011;34999;50.940;3.998;2022-09-09T09:58:49;6.53;;;2.10;;
48945;SDS011;34999;50.940;3.998;2022-09-09T10:01:20;4.90;;;2.30;;
48945;SDS011;34999;50.940;3.998;2022-09-09T10:03:59;11.33;;;2.30;;
48945;SDS011;34999;50.940;3.998;2022-09-09T10:06:32;7.30;;;2.30;;
48945;SDS011;34999;50.940;3.998;2022-09-09T10:09:02;2.97;;;1.83;;
48945;SDS011;34999;50.940;3.998;2022-09-09T10:11:48;6.83;;;2.37;;
48945;SDS011;34999;50.940;3.998;2022-09-09T10:14:28;5.53;;;1.93;;
48945;SDS011;34999;50.940;3.998;2022-09-09T10:17:10;3.90;;;2.50;;
48945;SDS011;34999;50.940;3.998;2022-09-09T10:19:49;7.60;;;1.90;;
48945;SDS011;34999;50.940;3.998;2022-09-09T10:22:26;3.53;;;1.80;;
48945;SDS011;34999;50.940;3.998;2022-09-09T10:25:07;3.57;;;1.80;;
48945;SDS011;34999;50.940;3.998;2022-09-09T10:28:06;3.30;;;1.87;;
48945;SDS011;34999;50.940;3.998;2022-09-09T10:30:54;4.50;;;2.00;;
48945;SDS011;34999;50.940;3.998;2022-09-09T10:33:31;7.23;;;2.10;;
48945;SDS011;34999;50.940;3.998;2022-09-09T10:36:07;4.30;;;2.03;;
48945;SDS011;34999;50.940;3.998;2022-09-09T10:38:42;4.23;;;1.90;;
48945;SDS011;34999;50.940;3.998;2022-09-09T10:41:19;5.80;;;1.70;;
48945;SDS011;34999;50.940;3.998;2022-09-09T10:44:02;6.77;;;1.90;;
48945;SDS011;34999;50.940;3.998;2022-09-09T10:46:51;5.97;;;2.27;;
48945;SDS011;34999;50.940;3.998;2022-09-09T10:49:42;2.70;;;1.67;;
48945;SDS011;34999;50.940;3.998;2022-09-09T10:52:27;3.97;;;1.70;;
48945;SDS011;34999;50.940;3.998;2022-09-09T10:55:01;5.80;;;2.03;;
48945;SDS011;34999;50.940;3.998;2022-09-09T10:57:38;6.97;;;2.00;;
48945;SDS011;34999;50.940;3.998;2022-09-09T11:00:14;2.93;;;1.80;;
48945;SDS011;34999;50.940;3.998;2022-09-09T11:02:45;4.37;;;1.87;;
48945;SDS011;34999;50.940;3.998;2022-09-09T11:05:20;4.27;;;2.00;;
48945;SDS011;34999;50.940;3.998;2022-09-09T11:07:55;2.80;;;1.60;;
48945;SDS011;34999;50.940;3.998;2022-09-09T11:10:29;2.70;;;1.90;;
48945;SDS011;34999;50.940;3.998;2022-09-09T11:13:08;2.93;;;1.60;;
48945;SDS011;34999;50.940;3.998;2022-09-09T11:15:42;3.43;;;1.80;;
48945;SDS011;34999;50.940;3.998;2022-09-09T11:18:17;4.80;;;1.50;;
48945;SDS011;34999;50.940;3.998;2022-09-09T11:20:48;6.13;;;2.07;;
48945;SDS011;34999;50.940;3.998;2022-09-09T11:23:20;7.07;;;1.90;;
48945;SDS011;34999;50.940;3.998;2022-09-09T11:25:55;1.37;;;1.30;;
48945;SDS011;34999;50.940;3.998;2022-09-09T11:28:32;1.63;;;1.53;;
48945;SDS011;34999;50.940;3.998;2022-09-09T11:31:21;3.20;;;1.80;;
48945;SDS011;34999;50.940;3.998;2022-09-09T11:34:14;2.53;;;1.37;;
48945;SDS011;34999;50.940;3.998;2022-09-09T11:37:10;3.23;;;1.70;;
48945;SDS011;34999;50.940;3.998;2022-09-09T11:40:08;1.80;;;1.70;;
48945;SDS011;34999;50.940;3.998;2022-09-09T11:42:43;2.07;;;1.70;;
48945;SDS011;34999;50.940;3.998;2022-09-09T11:45:20;4.07;;;1.93;;
48945;SDS011;34999;50.940;3.998;2022-09-09T11:47:52;3.07;;;1.73;;
48945;SDS011;34999;50.940;3.998;2022-09-09T11:50:30;7.43;;;2.07;;
48945;SDS011;34999;50.940;3.998;2022-09-09T11:53:18;4.47;;;1.93;;
48945;SDS011;34999;50.940;3.998;2022-09-09T11:56:02;4.13;;;1.90;;
48945;SDS011;34999;50.940;3.998;2022-09-09T11:58:40;2.37;;;1.60;;
48945;SDS011;34999;50.940;3.998;2022-09-09T12:01:12;2.80;;;1.77;;
48945;SDS011;34999;50.940;3.998;2022-09-09T12:03:55;6.13;;;1.80;;
48945;SDS011;34999;50.940;3.998;2022-09-09T12:06:50;4.97;;;1.97;;
48945;SDS011;34999;50.940;3.998;2022-09-09T12:09:25;2.83;;;2.10;;
48945;SDS011;34999;50.940;3.998;2022-09-09T12:12:22;2.50;;;1.87;;
48945;SDS011;34999;50.940;3.998;2022-09-09T12:14:56;1.90;;;1.77;;
48945;SDS011;34999;50.940;3.998;2022-09-09T12:17:30;5.53;;;2.03;;
48945;SDS011;34999;50.940;3.998;2022-09-09T12:20:08;6.43;;;2.30;;
48945;SDS011;34999;50.940;3.998;2022-09-09T12:22:45;4.40;;;2.17;;
48945;SDS011;34999;50.940;3.998;2022-09-09T12:25:26;2.70;;;1.80;;
48945;SDS011;34999;50.940;3.998;2022-09-09T12:28:04;6.63;;;1.97;;
48945;SDS011;34999;50.940;3.998;2022-09-09T12:30:41;1.93;;;1.77;;
48945;SDS011;34999;50.940;3.998;2022-09-09T12:33:17;3.03;;;1.63;;
48945;SDS011;34999;50.940;3.998;2022-09-09T12:35:48;2.93;;;1.80;;
48945;SDS011;34999;50.940;3.998;2022-09-09T12:38:26;4.47;;;1.60;;
48945;SDS011;34999;50.940;3.998;2022-09-09T12:41:00;1.70;;;1.60;;
48945;SDS011;34999;50.940;3.998;2022-09-09T12:43:28;4.43;;;1.87;;
48945;SDS011;34999;50.940;3.998;2022-09-09T12:45:57;5.40;;;2.00;;
48945;SDS011;34999;50.940;3.998;2022-09-09T12:48:29;2.63;;;1.60;;
48945;SDS011;34999;50.940;3.998;2022-09-09T12:51:16;3.50;;;1.70;;
48945;SDS011;34999;50.940;3.998;2022-09-09T12:53:48;3.07;;;1.77;;
48945;SDS011;34999;50.940;3.998;2022-09-09T12:56:20;4.20;;;1.70;;
48945;SDS011;34999;50.940;3.998;2022-09-09T12:58:50;5.10;;;1.70;;
48945;SDS011;34999;50.940;3.998;2022-09-09T13:01:21;5.30;;;1.90;;
48945;SDS011;34999;50.940;3.998;2022-09-09T13:03:51;4.10;;;1.73;;
48945;SDS011;34999;50.940;3.998;2022-09-09T13:06:21;2.23;;;1.70;;
48945;SDS011;34999;50.940;3.998;2022-09-09T13:08:56;5.30;;;1.57;;
48945;SDS011;34999;50.940;3.998;2022-09-09T13:11:27;3.83;;;1.20;;
48945;SDS011;34999;50.940;3.998;2022-09-09T13:13:58;3.03;;;1.67;;
48945;SDS011;34999;50.940;3.998;2022-09-09T13:16:28;4.43;;;1.90;;
48945;SDS011;34999;50.940;3.998;2022-09-09T13:19:00;3.13;;;1.60;;
48945;SDS011;34999;50.940;3.998;2022-09-09T13:21:34;3.03;;;1.83;;
48945;SDS011;34999;50.940;3.998;2022-09-09T13:24:06;1.73;;;1.60;;
48945;SDS011;34999;50.940;3.998;2022-09-09T13:26:56;3.87;;;1.87;;
48945;SDS011;34999;50.940;3.998;2022-09-09T13:29:27;4.23;;;1.87;;
48945;SDS011;34999;50.940;3.998;2022-09-09T13:32:03;3.63;;;1.50;;
48945;SDS011;34999;50.940;3.998;2022-09-09T13:34:33;3.57;;;1.60;;
48945;SDS011;34999;50.940;3.998;2022-09-09T13:37:03;3.07;;;1.70;;
48945;SDS011;34999;50.940;3.998;2022-09-09T13:39:35;2.97;;;1.40;;
48945;SDS011;34999;50.940;3.998;2022-09-09T13:42:05;5.53;;;1.47;;
48945;SDS011;34999;50.940;3.998;2022-09-09T13:44:35;1.37;;;1.33;;
48945;SDS011;34999;50.940;3.998;2022-09-09T13:47:17;4.10;;;1.80;;
48945;SDS011;34999;50.940;3.998;2022-09-09T13:49:47;1.50;;;1.40;;
48945;SDS011;34999;50.940;3.998;2022-09-09T13:52:15;4.33;;;1.53;;
48945;SDS011;34999;50.940;3.998;2022-09-09T13:54:48;5.03;;;1.80;;
48945;SDS011;34999;50.940;3.998;2022-09-09T13:57:18;3.03;;;1.70;;
48945;SDS011;34999;50.940;3.998;2022-09-09T13:59:48;1.97;;;1.40;;
48945;SDS011;34999;50.940;3.998;2022-09-09T14:02:30;1.50;;;1.40;;
48945;SDS011;34999;50.940;3.998;2022-09-09T14:05:00;2.30;;;1.47;;
48945;SDS011;34999;50.940;3.998;2022-09-09T14:07:28;3.77;;;1.40;;
48945;SDS011;34999;50.940;3.998;2022-09-09T14:09:57;2.53;;;1.40;;
48945;SDS011;34999;50.940;3.998;2022-09-09T14:12:26;1.40;;;1.30;;
48945;SDS011;34999;50.940;3.998;2022-09-09T14:14:55;2.23;;;1.70;;
48945;SDS011;34999;50.940;3.998;2022-09-09T14:17:23;3.80;;;1.43;;
48945;SDS011;34999;50.940;3.998;2022-09-09T14:19:53;2.23;;;1.63;;
48945;SDS011;34999;50.940;3.998;2022-09-09T14:22:22;2.67;;;1.30;;
48945;SDS011;34999;50.940;3.998;2022-09-09T14:24:51;6.83;;;1.90;;
48945;SDS011;34999;50.940;3.998;2022-09-09T14:27:21;5.43;;;1.50;;
48945;SDS011;34999;50.940;3.998;2022-09-09T14:29:49;2.53;;;1.40;;
48945;SDS011;34999;50.940;3.998;2022-09-09T14:32:18;4.77;;;1.50;;
48945;SDS011;34999;50.940;3.998;2022-09-09T14:34:47;2.07;;;1.70;;
48945;SDS011;34999;50.940;3.998;2022-09-09T14:37:16;1.90;;;1.70;;
48945;SDS011;34999;50.940;3.998;2022-09-09T14:39:45;1.53;;;1.43;;
48945;SDS011;34999;50.940;3.998;2022-09-09T14:42:13;2.97;;;1.60;;
48945;SDS011;34999;50.940;3.998;2022-09-09T14:44:43;5.73;;;1.73;;
48945;SDS011;34999;50.940;3.998;2022-09-09T14:47:12;2.87;;;1.50;;
48945;SDS011;34999;50.940;3.998;2022-09-09T14:49:40;2.73;;;1.70;;
48945;SDS011;34999;50.940;3.998;2022-09-09T14:58:17;2.70;;;1.80;;
48945;SDS011;34999;50.940;3.998;2022-09-09T15:00:46;2.60;;;1.70;;
48945;SDS011;34999;50.940;3.998;2022-09-09T15:03:16;1.83;;;1.63;;
48945;SDS011;34999;50.940;3.998;2022-09-09T15:05:45;1.90;;;1.77;;
48945;SDS011;34999;50.940;3.998;2022-09-09T15:08:14;3.50;;;2.00;;
48945;SDS011;34999;50.940;3.998;2022-09-09T15:10:43;2.77;;;1.63;;
48945;SDS011;34999;50.940;3.998;2022-09-09T15:13:15;3.20;;;1.87;;
48945;SDS011;34999;50.940;3.998;2022-09-09T15:18:44;3.43;;;2.03;;
48945;SDS011;34999;50.940;3.998;2022-09-09T15:24:08;2.60;;;1.93;;
48945;SDS011;34999;50.940;3.998;2022-09-09T15:26:37;6.67;;;2.60;;
48945;SDS011;34999;50.940;3.998;2022-09-09T15:29:11;11.20;;;3.07;;
48945;SDS011;34999;50.940;3.998;2022-09-09T15:37:42;3.23;;;2.63;;
48945;SDS011;34999;50.940;3.998;2022-09-09T15:40:11;6.83;;;2.90;;
48945;SDS011;34999;50.940;3.998;2022-09-09T15:42:41;4.00;;;2.60;;
48945;SDS011;34999;50.940;3.998;2022-09-09T15:45:10;4.30;;;2.67;;